Time;durP1;ratioP1;P1;durP2;ratioP2;P2;SDS_P1;SDS_P2;PMS_P1;PMS_P2;Temp;Humidity;BMP_temperature;BMP_pressure;BME280_temperature;BME280_humidity;BME280_pressure;Samples;Min_cycle;Max_cycle;Signal;HPM_P1;HPM_P2
2023/08/07 00:03:30;;;;;;;;;;;14.00;99.90;;;;;;12454959;28;19961;-84
2023/08/07 00:09:32;;;;;;;;;;;14.00;99.90;;;;;;12453190;28;19929;-85
2023/08/07 00:15:37;;;;;;;;;;;13.90;99.90;;;;;;12458956;28;19933;-84
2023/08/07 00:21:39;;;;;;;;;;;13.90;99.90;;;;;;12447434;28;19933;-85
2023/08/07 00:27:40;;;;;;;;;;;14.00;99.90;;;;;;12466331;28;20008;-85
2023/08/07 00:33:42;;;;;;;;;;;13.90;99.90;;;;;;12472423;28;20285;-84
2023/08/07 00:39:44;;;;;;;;;;;13.90;99.90;;;;;;12460158;28;19956;-86
2023/08/07 00:45:46;;;;;;;;;;;14.00;99.90;;;;;;12453319;28;20395;-83
2023/08/07 00:51:48;;;;;;;;;;;13.90;99.90;;;;;;12437077;28;19937;-84
2023/08/07 00:57:50;;;;;;;;;;;13.90;99.90;;;;;;12481011;28;19925;-85
2023/08/07 01:03:52;;;;;;;;;;;13.80;99.90;;;;;;12461966;28;19968;-83
2023/08/07 01:09:56;;;;;;;;;;;13.80;99.90;;;;;;12468025;28;19975;-82
2023/08/07 01:16:01;;;;;;;;;;;13.90;99.90;;;;;;12458795;28;19926;-82
2023/08/07 01:22:10;;;;;;;;;;;13.80;99.90;;;;;;12466716;28;19925;-83
2023/08/07 01:28:35;;;;;;;;;;;13.80;99.90;;;;;;12464499;28;19949;-85
2023/08/07 01:34:40;;;;;;;;;;;13.80;99.90;;;;;;12471647;28;19925;-84
2023/08/07 01:40:42;;;;;;;;;;;13.80;99.90;;;;;;12458145;28;19975;-84
2023/08/07 01:46:44;;;;;;;;;;;13.80;99.90;;;;;;12460298;28;20293;-85
2023/08/07 01:52:46;;;;;;;;;;;13.80;99.90;;;;;;12479853;28;20076;-84
2023/08/07 01:58:48;;;;;;;;;;;13.80;99.90;;;;;;12476009;28;20819;-84
2023/08/07 02:04:50;;;;;;;;;;;13.80;99.90;;;;;;12458067;28;20040;-85
2023/08/07 02:10:51;;;;;;;;;;;13.70;99.90;;;;;;12472735;28;20397;-84
2023/08/07 02:16:53;;;;;;;;;;;13.80;99.90;;;;;;12459348;28;19925;-85
2023/08/07 02:22:55;;;;;;;;;;;13.80;99.90;;;;;;12474632;28;20012;-85
2023/08/07 02:28:57;;;;;;;;;;;13.80;99.90;;;;;;12454078;28;20048;-85
2023/08/07 02:34:59;;;;;;;;;;;13.70;99.90;;;;;;12458944;28;19925;-84
2023/08/07 02:41:01;;;;;;;;;;;13.80;99.90;;;;;;12455796;28;19936;-85
2023/08/07 02:47:03;;;;;;;;;;;13.80;99.90;;;;;;12455913;28;19929;-86
2023/08/07 02:53:04;;;;;;;;;;;13.80;99.90;;;;;;12467058;28;20007;-85
2023/08/07 02:59:06;;;;;;;;;;;13.90;99.90;;;;;;12459075;28;19978;-86
2023/08/07 03:05:08;;;;;;;;;;;13.80;99.90;;;;;;12471808;28;20063;-85
2023/08/07 03:11:10;;;;;;;;;;;13.80;99.90;;;;;;12454768;28;19979;-87
2023/08/07 03:17:12;;;;;;;;;;;13.80;99.90;;;;;;12450852;28;20016;-85
2023/08/07 03:23:14;;;;;;;;;;;13.90;99.90;;;;;;12470643;28;19972;-83
2023/08/07 03:29:15;;;;;;;;;;;13.80;99.90;;;;;;12465661;28;19976;-85
2023/08/07 03:35:17;;;;;;;;;;;13.80;99.90;;;;;;12474423;28;19926;-85
2023/08/07 03:41:19;;;;;;;;;;;13.80;99.90;;;;;;12464047;28;20288;-85
2023/08/07 03:47:20;;;;;;;;;;;13.80;99.90;;;;;;12467218;28;19936;-85
2023/08/07 03:53:22;;;;;;;;;;;13.80;99.90;;;;;;12472043;28;19925;-83
2023/08/07 03:59:24;;;;;;;;;;;13.90;99.90;;;;;;12461851;28;19925;-85
2023/08/07 04:05:28;;;;;;;;;;;13.80;99.90;;;;;;12474609;22;20416;-35
2023/08/07 04:11:30;;;;;;;;;;;13.90;99.90;;;;;;12491538;28;20020;-36
2023/08/07 04:17:32;;;;;;;;;;;13.90;99.90;;;;;;12470845;28;20004;-36
2023/08/07 04:23:33;;;;;;;;;;;13.90;99.90;;;;;;12506635;28;19925;-36
2023/08/07 04:29:35;;;;;;;;;;;13.90;99.90;;;;;;12502263;28;20311;-36
2023/08/07 04:35:37;;;;;;;;;;;13.80;99.90;;;;;;12510165;28;19933;-36
2023/08/07 04:41:39;;;;;;;;;;;13.90;99.90;;;;;;12514062;28;19925;-36
2023/08/07 04:47:41;;;;;;;;;;;13.90;99.90;;;;;;12504934;28;19941;-36
2023/08/07 04:53:43;;;;;;;;;;;14.00;99.90;;;;;;12510600;28;20012;-35
2023/08/07 04:59:44;;;;;;;;;;;13.90;99.90;;;;;;12503326;28;19933;-36
2023/08/07 05:05:46;;;;;;;;;;;14.00;99.90;;;;;;12486870;28;20020;-36
2023/08/07 05:11:48;;;;;;;;;;;14.00;99.90;;;;;;12499777;28;20547;-36
2023/08/07 05:17:50;;;;;;;;;;;14.00;99.90;;;;;;12510171;28;19925;-36
2023/08/07 05:23:54;;;;;;;;;;;14.00;99.90;;;;;;12515531;28;20421;-36
2023/08/07 05:29:56;;;;;;;;;;;14.00;99.90;;;;;;12483446;28;19924;-36
2023/08/07 05:35:58;;;;;;;;;;;14.10;99.90;;;;;;12505924;28;19968;-36
2023/08/07 05:42:00;;;;;;;;;;;14.10;99.90;;;;;;12501870;28;20399;-35
2023/08/07 05:48:02;;;;;;;;;;;14.20;99.90;;;;;;12507327;28;19925;-36
2023/08/07 05:54:04;;;;;;;;;;;14.20;99.90;;;;;;12497349;28;20330;-36
2023/08/07 06:00:07;;;;;;;;;;;14.10;99.90;;;;;;12506393;28;20328;-36
2023/08/07 06:06:09;;;;;;;;;;;14.10;99.90;;;;;;12527835;28;20002;-35
2023/08/07 06:12:11;;;;;;;;;;;14.20;99.90;;;;;;12508774;28;19977;-35
2023/08/07 06:18:12;;;;;;;;;;;14.10;99.90;;;;;;12517387;28;19924;-36
2023/08/07 06:24:14;;;;;;;;;;;14.10;99.90;;;;;;12513172;28;19968;-36
2023/08/07 06:30:16;;;;;;;;;;;14.10;99.90;;;;;;12504635;28;19974;-36
2023/08/07 06:36:18;;;;;;;;;;;14.10;99.90;;;;;;12505718;28;19929;-36
2023/08/07 06:42:20;;;;;;;;;;;14.00;99.90;;;;;;12513018;28;19970;-37
2023/08/07 06:48:21;;;;;;;;;;;14.10;99.90;;;;;;12509506;28;19924;-36
2023/08/07 06:54:23;;;;;;;;;;;14.10;99.90;;;;;;12494058;28;19928;-36
2023/08/07 07:00:25;;;;;;;;;;;14.10;99.90;;;;;;12521522;28;19925;-37
2023/08/07 07:06:27;;;;;;;;;;;14.20;99.90;;;;;;12525203;22;19925;-36
2023/08/07 07:12:29;;;;;;;;;;;14.30;99.90;;;;;;12459602;28;19925;-36
2023/08/07 07:18:31;;;;;;;;;;;14.30;99.90;;;;;;12468651;28;19925;-36
2023/08/07 07:24:32;;;;;;;;;;;14.40;99.90;;;;;;12462160;28;19926;-36
2023/08/07 07:30:34;;;;;;;;;;;14.50;99.90;;;;;;12478178;28;19992;-36
2023/08/07 07:36:36;;;;;;;;;;;14.70;99.90;;;;;;12479220;28;20308;-36
2023/08/07 07:42:38;;;;;;;;;;;14.90;99.90;;;;;;12474220;28;20016;-37
2023/08/07 07:48:40;;;;;;;;;;;14.90;99.90;;;;;;12471962;28;19929;-37
2023/08/07 07:54:41;;;;;;;;;;;15.00;99.90;;;;;;12479336;28;20059;-37
2023/08/07 08:00:43;;;;;;;;;;;14.90;99.90;;;;;;12464653;28;19932;-37
2023/08/07 08:06:47;;;;;;;;;;;14.90;99.90;;;;;;12459478;28;19933;-36
2023/08/07 08:12:49;;;;;;;;;;;14.70;99.90;;;;;;12434677;28;19933;-37
2023/08/07 08:18:51;;;;;;;;;;;14.60;99.90;;;;;;12428061;28;19948;-38
2023/08/07 08:24:53;;;;;;;;;;;14.60;99.90;;;;;;12417649;28;19933;-37
2023/08/07 08:30:55;;;;;;;;;;;14.80;99.90;;;;;;12416812;28;19925;-37
2023/08/07 08:36:57;;;;;;;;;;;14.80;99.90;;;;;;12422563;28;19976;-37
2023/08/07 08:43:01;;;;;;;;;;;14.50;99.90;;;;;;12418990;28;20012;-36
2023/08/07 08:49:03;;;;;;;;;;;14.50;99.90;;;;;;12414831;28;20397;-37
2023/08/07 08:55:06;;;;;;;;;;;14.60;99.90;;;;;;12411485;28;20381;-36
2023/08/07 09:01:08;;;;;;;;;;;14.80;99.90;;;;;;12419916;28;20043;-36
2023/08/07 09:07:11;;;;;;;;;;;15.10;99.90;;;;;;12413458;28;20393;-36
2023/08/07 09:13:16;;;;;;;;;;;15.50;99.90;;;;;;12430473;28;19973;-36
2023/08/07 09:19:18;;;;;;;;;;;15.80;99.90;;;;;;12423548;28;19932;-36
2023/08/07 09:31:55;;;;;;;;;;;15.20;99.90;;;;;;12299600;28;19934;-37
2023/08/07 09:37:57;;;;;;;;;;;14.70;99.90;;;;;;12302259;28;19926;-37
2023/08/07 09:44:06;;;;;;;;;;;14.20;99.90;;;;;;12298949;28;20013;-37
2023/08/07 09:50:14;;;;;;;;;;;13.90;99.90;;;;;;12306357;28;20240;-37
2023/08/07 09:56:17;;;;;;;;;;;14.00;99.90;;;;;;12302941;28;19934;-37
2023/08/07 10:02:20;;;;;;;;;;;14.40;99.90;;;;;;12291799;28;19926;-37
2023/08/07 10:08:22;;;;;;;;;;;15.30;99.90;;;;;;12308991;28;19930;-36
2023/08/07 10:14:25;;;;;;;;;;;15.60;99.90;;;;;;12292647;28;19977;-36
2023/08/07 10:20:28;;;;;;;;;;;15.90;99.90;;;;;;12310635;28;19927;-37
2023/08/07 10:26:32;;;;;;;;;;;16.20;99.90;;;;;;12280706;28;20295;-36
2023/08/07 10:32:35;;;;;;;;;;;15.80;99.90;;;;;;12254115;28;19941;-36
2023/08/07 10:38:37;;;;;;;;;;;14.50;99.90;;;;;;12214984;29;20022;-36
2023/08/07 10:44:47;;;;;;;;;;;13.80;99.90;;;;;;12221651;29;20046;-37
2023/08/07 10:50:57;;;;;;;;;;;14.00;99.90;;;;;;12244255;29;20029;-37
2023/08/07 10:56:59;;;;;;;;;;;14.40;99.90;;;;;;12239633;29;20172;-37
2023/08/07 11:03:02;;;;;;;;;;;14.50;99.90;;;;;;12242668;29;19938;-38
2023/08/07 11:09:05;;;;;;;;;;;14.60;99.90;;;;;;12239294;29;20643;-37
2023/08/07 11:15:07;;;;;;;;;;;14.90;99.90;;;;;;12231286;29;20021;-38
2023/08/07 11:21:10;;;;;;;;;;;15.50;99.90;;;;;;12241087;29;19927;-37
2023/08/07 11:27:12;;;;;;;;;;;15.90;99.90;;;;;;12240262;29;20422;-37
2023/08/07 11:33:14;;;;;;;;;;;15.40;99.90;;;;;;12236205;29;19958;-36
2023/08/07 11:39:17;;;;;;;;;;;15.10;99.90;;;;;;12235113;29;19934;-37
2023/08/07 11:45:19;;;;;;;;;;;14.70;99.90;;;;;;12231056;29;20358;-37
2023/08/07 11:51:20;;;;;;;;;;;14.70;99.90;;;;;;12236997;29;19965;-36
2023/08/07 11:57:22;;;;;;;;;;;14.80;99.90;;;;;;12240083;29;19927;-37
2023/08/07 12:03:25;;;;;;;;;;;15.20;99.90;;;;;;12233472;28;19927;-36
2023/08/07 12:09:28;;;;;;;;;;;15.60;99.90;;;;;;12237579;29;19937;-36
2023/08/07 12:15:31;;;;;;;;;;;15.70;99.90;;;;;;12247698;29;19927;-37
2023/08/07 12:21:34;;;;;;;;;;;15.90;99.90;;;;;;12237729;29;19933;-36
2023/08/07 12:27:38;;;;;;;;;;;16.40;99.90;;;;;;12233613;29;20410;-36
2023/08/07 12:33:39;;;;;;;;;;;16.10;99.90;;;;;;12234735;29;19981;-37
2023/08/07 12:39:41;;;;;;;;;;;15.90;99.90;;;;;;12232989;29;20821;-37
2023/08/07 12:45:46;;;;;;;;;;;16.70;99.90;;;;;;12230901;29;19926;-36
2023/08/07 12:51:52;;;;;;;;;;;16.60;99.90;;;;;;12223194;29;19930;-38
2023/08/07 12:57:55;;;;;;;;;;;16.80;99.90;;;;;;12245644;29;19934;-37
2023/08/07 13:03:56;;;;;;;;;;;16.40;99.90;;;;;;12242372;29;20671;-36
2023/08/07 13:09:58;;;;;;;;;;;16.20;99.90;;;;;;12248054;29;20085;-37
2023/08/07 13:16:00;;;;;;;;;;;16.40;99.90;;;;;;12244621;29;19931;-37
2023/08/07 13:22:02;;;;;;;;;;;16.80;99.90;;;;;;12249073;29;19954;-36
2023/08/07 13:28:06;;;;;;;;;;;16.80;99.90;;;;;;12240471;29;20204;-36
2023/08/07 13:34:10;;;;;;;;;;;16.70;99.90;;;;;;12235371;29;20406;-37
2023/08/07 13:40:13;;;;;;;;;;;16.80;99.90;;;;;;12241321;29;19934;-36
2023/08/07 13:46:16;;;;;;;;;;;17.00;99.90;;;;;;12243746;29;19933;-36
2023/08/07 13:52:17;;;;;;;;;;;16.80;99.90;;;;;;12252365;29;19926;-37
2023/08/07 13:58:20;;;;;;;;;;;16.40;99.90;;;;;;12244703;29;19934;-36
2023/08/07 14:04:22;;;;;;;;;;;16.10;99.90;;;;;;12240956;29;20438;-37
2023/08/07 14:10:24;;;;;;;;;;;16.20;99.90;;;;;;12243037;29;19926;-36
2023/08/07 14:16:25;;;;;;;;;;;17.00;99.90;;;;;;12250333;29;20328;-37
2023/08/07 14:22:27;;;;;;;;;;;17.30;99.90;;;;;;12253008;28;19937;-36
2023/08/07 14:28:29;;;;;;;;;;;17.50;99.90;;;;;;12241078;28;20411;-37
2023/08/07 14:34:31;;;;;;;;;;;17.40;99.90;;;;;;12236188;29;19942;-37
2023/08/07 14:40:33;;;;;;;;;;;17.30;99.90;;;;;;12235151;29;20013;-36
2023/08/07 14:46:34;;;;;;;;;;;17.10;99.90;;;;;;12229227;29;20005;-37
2023/08/07 14:52:36;;;;;;;;;;;17.10;99.90;;;;;;12243661;29;19989;-37
2023/08/07 14:58:38;;;;;;;;;;;17.00;99.90;;;;;;12238827;29;19926;-37
2023/08/07 15:04:40;;;;;;;;;;;16.80;99.90;;;;;;12237939;29;20001;-36
2023/08/07 15:10:41;;;;;;;;;;;16.70;99.90;;;;;;12243045;29;19946;-36
2023/08/07 15:16:43;;;;;;;;;;;16.70;99.90;;;;;;12240949;28;21040;-36
2023/08/07 15:22:46;;;;;;;;;;;16.60;99.90;;;;;;12241594;29;20043;-36
2023/08/07 15:28:48;;;;;;;;;;;16.40;99.90;;;;;;12242342;28;20084;-36
2023/08/07 15:34:50;;;;;;;;;;;16.20;99.90;;;;;;12235063;29;19935;-36
2023/08/07 15:40:52;;;;;;;;;;;15.70;99.90;;;;;;12240979;29;20378;-36
2023/08/07 15:46:54;;;;;;;;;;;15.30;99.90;;;;;;12237070;29;19934;-36
2023/08/07 15:52:56;;;;;;;;;;;14.80;99.90;;;;;;12222032;29;20283;-37
2023/08/07 15:58:58;;;;;;;;;;;14.60;99.90;;;;;;12245373;29;19985;-36
2023/08/07 16:05:00;;;;;;;;;;;14.40;99.90;;;;;;12239794;29;20627;-36
2023/08/07 16:11:02;;;;;;;;;;;14.40;99.90;;;;;;12233924;29;19935;-37
2023/08/07 16:17:05;;;;;;;;;;;14.40;99.90;;;;;;12248044;29;20129;-36
2023/08/07 16:23:07;;;;;;;;;;;14.30;99.90;;;;;;12246895;29;20029;-36
2023/08/07 16:29:09;;;;;;;;;;;14.40;99.90;;;;;;12244189;29;20270;-36
2023/08/07 16:35:11;;;;;;;;;;;14.70;99.90;;;;;;12240206;29;19966;-36
2023/08/07 16:41:12;;;;;;;;;;;15.00;99.90;;;;;;12246587;29;19970;-36
2023/08/07 16:47:15;;;;;;;;;;;15.40;99.90;;;;;;12250293;29;20037;-36
2023/08/07 16:53:16;;;;;;;;;;;15.50;99.90;;;;;;12246594;29;20341;-36
2023/08/07 16:59:18;;;;;;;;;;;15.40;99.90;;;;;;12243601;29;19927;-36
2023/08/07 17:05:23;;;;;;;;;;;14.90;99.90;;;;;;12251348;29;19934;-36
2023/08/07 17:11:28;;;;;;;;;;;14.80;99.90;;;;;;12246685;29;20403;-36
2023/08/07 17:17:29;;;;;;;;;;;14.90;99.90;;;;;;12252003;28;20221;-36
2023/08/07 17:23:31;;;;;;;;;;;15.00;99.90;;;;;;12248596;29;19934;-36
2023/08/07 17:29:33;;;;;;;;;;;15.10;99.90;;;;;;12243893;29;20021;-37
2023/08/07 17:35:34;;;;;;;;;;;15.10;99.90;;;;;;12244409;29;20029;-37
2023/08/07 17:41:36;;;;;;;;;;;15.50;99.90;;;;;;12249315;29;20104;-37
2023/08/07 17:47:38;;;;;;;;;;;15.70;99.90;;;;;;12251625;29;19934;-37
2023/08/07 17:53:40;;;;;;;;;;;15.70;99.90;;;;;;12251880;29;19926;-37
2023/08/07 17:59:41;;;;;;;;;;;15.60;99.90;;;;;;12248279;29;19978;-38
2023/08/07 18:05:43;;;;;;;;;;;15.50;99.90;;;;;;12253127;29;19974;-37
2023/08/07 18:11:45;;;;;;;;;;;15.30;99.90;;;;;;12251651;29;19941;-36
2023/08/07 18:17:47;;;;;;;;;;;15.20;99.90;;;;;;12250188;29;19962;-37
2023/08/07 18:23:50;;;;;;;;;;;15.00;99.90;;;;;;12237996;29;20422;-36
2023/08/07 18:29:52;;;;;;;;;;;14.80;99.90;;;;;;12234361;29;20510;-37
2023/08/07 18:35:53;;;;;;;;;;;14.70;99.90;;;;;;12234506;29;19962;-36
2023/08/07 18:41:55;;;;;;;;;;;14.60;99.90;;;;;;12233786;29;19973;-37
2023/08/07 18:47:57;;;;;;;;;;;14.60;99.90;;;;;;12236173;29;20021;-36
2023/08/07 18:53:59;;;;;;;;;;;14.50;99.90;;;;;;12239386;29;19945;-37
2023/08/07 19:00:00;;;;;;;;;;;14.30;99.90;;;;;;12241041;29;20502;-36
2023/08/07 19:06:05;;;;;;;;;;;14.30;99.90;;;;;;12223643;29;19934;-37
2023/08/07 19:12:07;;;;;;;;;;;14.20;99.90;;;;;;12233681;29;20521;-36
2023/08/07 19:18:08;;;;;;;;;;;14.20;99.90;;;;;;12229119;29;20433;-36
2023/08/07 19:24:10;;;;;;;;;;;14.10;99.90;;;;;;12233410;29;19931;-36
2023/08/07 19:30:13;;;;;;;;;;;14.10;99.90;;;;;;12230392;29;19934;-36
2023/08/07 19:36:15;;;;;;;;;;;14.00;99.90;;;;;;12239362;29;20030;-37
2023/08/07 19:42:16;;;;;;;;;;;13.90;99.90;;;;;;12237416;29;19977;-36
2023/08/07 19:48:18;;;;;;;;;;;14.00;99.90;;;;;;12237613;29;19950;-37
2023/08/07 19:54:20;;;;;;;;;;;14.00;99.90;;;;;;12231986;29;20405;-36
2023/08/07 20:00:22;;;;;;;;;;;13.80;99.90;;;;;;12229217;29;19931;-37
2023/08/07 20:06:23;;;;;;;;;;;13.80;99.90;;;;;;12221330;29;19930;-36
2023/08/07 20:12:25;;;;;;;;;;;13.70;99.90;;;;;;12235850;29;19974;-37
2023/08/07 20:18:27;;;;;;;;;;;13.60;99.90;;;;;;12226436;29;20393;-36
2023/08/07 20:24:29;;;;;;;;;;;13.50;99.90;;;;;;12225140;29;20360;-37
2023/08/07 20:30:30;;;;;;;;;;;13.50;99.90;;;;;;12229016;29;19986;-36
2023/08/07 20:36:32;;;;;;;;;;;13.50;99.90;;;;;;12228169;29;19935;-36
2023/08/07 20:42:34;;;;;;;;;;;13.40;99.90;;;;;;12230863;29;19931;-36
2023/08/07 20:48:36;;;;;;;;;;;13.30;99.90;;;;;;12219699;29;20279;-36
2023/08/07 20:54:41;;;;;;;;;;;13.50;99.90;;;;;;12235290;29;19934;-37
2023/08/07 21:00:42;;;;;;;;;;;13.40;99.90;;;;;;12231396;29;19934;-37
2023/08/07 21:06:46;;;;;;;;;;;13.30;99.90;;;;;;12235544;29;20333;-36
2023/08/07 21:12:47;;;;;;;;;;;13.40;99.90;;;;;;12231056;29;19927;-36
2023/08/07 21:18:49;;;;;;;;;;;13.30;99.90;;;;;;12246665;29;19930;-38
2023/08/07 21:24:51;;;;;;;;;;;13.10;99.90;;;;;;12234745;29;19957;-37
2023/08/07 21:30:52;;;;;;;;;;;13.10;99.90;;;;;;12235478;29;19966;-36
2023/08/07 21:36:54;;;;;;;;;;;13.10;99.90;;;;;;12231995;29;20331;-36
2023/08/07 21:42:56;;;;;;;;;;;13.00;99.90;;;;;;12243818;29;20393;-36
2023/08/07 21:48:58;;;;;;;;;;;13.00;99.90;;;;;;12240500;29;20023;-36
2023/08/07 21:54:59;;;;;;;;;;;12.90;99.90;;;;;;12247379;29;19930;-36
2023/08/07 22:01:01;;;;;;;;;;;13.00;99.90;;;;;;12245314;29;19927;-36
2023/08/07 22:07:03;;;;;;;;;;;13.00;99.90;;;;;;12236497;29;20037;-36
2023/08/07 22:13:05;;;;;;;;;;;13.00;99.90;;;;;;12234099;29;19974;-36
2023/08/07 22:19:07;;;;;;;;;;;13.00;99.90;;;;;;12236277;29;20386;-37
2023/08/07 22:25:09;;;;;;;;;;;12.90;99.90;;;;;;12239655;29;20268;-37
2023/08/07 22:31:11;;;;;;;;;;;12.70;99.90;;;;;;12240258;29;19934;-37
2023/08/07 22:37:12;;;;;;;;;;;12.60;99.90;;;;;;12240443;29;19934;-37
2023/08/07 22:43:14;;;;;;;;;;;12.60;99.90;;;;;;12232045;29;20029;-37
2023/08/07 22:49:19;;;;;;;;;;;12.60;99.90;;;;;;12217601;29;19931;-36
2023/08/07 22:55:21;;;;;;;;;;;12.50;99.90;;;;;;12241791;29;19972;-36
2023/08/07 23:01:22;;;;;;;;;;;12.60;99.90;;;;;;12247949;29;20413;-37
2023/08/07 23:07:25;;;;;;;;;;;12.70;99.90;;;;;;12242207;29;19931;-36
2023/08/07 23:13:26;;;;;;;;;;;12.70;99.90;;;;;;12236281;29;20073;-37
2023/08/07 23:19:28;;;;;;;;;;;12.70;99.90;;;;;;12250377;29;20021;-37
2023/08/07 23:25:30;;;;;;;;;;;12.70;99.90;;;;;;12248079;29;19958;-36
2023/08/07 23:31:31;;;;;;;;;;;12.60;99.90;;;;;;12247444;29;20021;-36
2023/08/07 23:37:33;;;;;;;;;;;12.70;99.90;;;;;;12249686;28;19926;-37
2023/08/07 23:43:35;;;;;;;;;;;12.80;99.90;;;;;;12248923;29;19938;-36
2023/08/07 23:49:36;;;;;;;;;;;12.70;99.90;;;;;;12228938;29;19927;-37
2023/08/07 23:55:38;;;;;;;;;;;12.70;99.90;;;;;;12242737;29;20009;-36
